Time,TemperatureF,DewpointF,PressureIn,WindDirection,WindDirectionDegrees,WindSpeedMPH,WindSpeedGustMPH,Humidity,HourlyPrecipIn,Conditions,Clouds,dailyrainin,SoftwareType,DateUTC
2013-05-25 11:29:00,54.9,19.7,29.09,NE,45,10.4,10.4,25,0.00,CLR,,0.00,WeatherDisplay:10.37,2013-05-25 15:29:00,
2013-05-25 11:34:00,55.2,20.0,29.32,North,0,8.1,8.1,25,0.00,CLR,,0.00,WeatherDisplay:10.37,2013-05-25 15:34:00,
2013-05-25 11:35:00,55.0,19.8,29.32,North,0,8.1,8.1,25,0.00,CLR,,0.00,WeatherDisplay:10.37,2013-05-25 15:35:00,
2013-05-25 11:39:00,55.2,20.0,29.32,NNE,22,5.8,5.8,25,0.00,CLR,,0.00,WeatherDisplay:10.37,2013-05-25 15:39:00,
2013-05-25 11:40:00,55.2,20.0,29.32,North,0,5.8,5.9,25,0.00,CLR,,0.00,WeatherDisplay:10.37,2013-05-25 15:40:00,
2013-05-25 11:44:00,55.4,20.1,29.32,NNE,22,10.4,10.4,25,0.00,CLR,,0.00,WeatherDisplay:10.37,2013-05-25 15:44:00,
2013-05-25 11:45:00,55.5,20.2,29.32,North,7,9.0,10.0,25,0.00,CLR,,0.00,WeatherDisplay:10.37,2013-05-25 15:45:00,
2013-05-25 11:50:00,56.1,20.7,29.32,NNE,22,2.4,5.4,25,0.00,CLR,,0.00,WeatherDisplay:10.37,2013-05-25 15:50:00,
2013-05-25 11:51:00,56.1,20.7,29.32,North,0,7.6,7.6,25,0.00,CLR,,0.00,WeatherDisplay:10.37,2013-05-25 15:51:00,
2013-05-25 11:55:00,56.7,21.2,29.32,NNE,22,12.7,12.7,25,0.00,CLR,,0.00,WeatherDisplay:10.37,2013-05-25 15:55:00,
2013-05-25 11:56:00,56.8,18.3,29.32,NNW,338,12.7,12.7,22,0.00,CLR,,0.00,WeatherDisplay:10.37,2013-05-25 15:56:00,
2013-05-25 12:00:00,57.2,18.6,29.32,NNW,338,10.4,10.4,22,0.00,CLR,,0.00,WeatherDisplay:10.37,2013-05-25 16:00:00,
2013-05-25 12:01:00,57.2,18.6,29.32,SSE,158,4.6,4.6,22,0.00,CLR,,0.00,WeatherDisplay:10.37,2013-05-25 16:01:00,
2013-05-25 12:05:00,57.6,18.9,29.32,NNE,22,8.1,8.1,22,0.00,CLR,,0.00,WeatherDisplay:10.37,2013-05-25 16:05:00,
2013-05-25 12:06:00,57.7,19.1,29.32,NNE,22,5.8,5.8,22,0.00,CLR,,0.00,WeatherDisplay:10.37,2013-05-25 16:06:00,
2013-05-25 12:07:00,57.9,19.2,29.32,North,0,5.8,5.8,22,0.00,CLR,,0.00,WeatherDisplay:10.37,2013-05-25 16:07:00,
2013-05-25 12:10:00,58.1,21.4,29.32,North,0,10.4,10.4,24,0.00,CLR,,0.00,WeatherDisplay:10.37,2013-05-25 16:10:00,
2013-05-25 12:11:00,58.3,21.6,29.32,NNE,22,10.4,10.4,24,0.00,CLR,,0.00,WeatherDisplay:10.37,2013-05-25 16:11:00,
2013-05-25 12:12:00,58.3,21.6,29.32,NNE,22,6.9,6.9,24,0.00,CLR,,0.00,WeatherDisplay:10.37,2013-05-25 16:12:00,
2013-05-25 12:15:00,58.3,19.6,29.32,NNE,22,5.8,5.8,22,0.00,CLR,,0.00,WeatherDisplay:10.37,2013-05-25 16:15:00,
2013-05-25 12:16:00,58.3,19.6,29.32,SSE,158,1.2,0.0,22,0.00,CLR,,0.00,WeatherDisplay:10.37,2013-05-25 16:16:00,
2013-05-25 12:17:00,58.5,19.7,29.32,SSE,158,2.3,2.3,22,0.00,CLR,,0.00,WeatherDisplay:10.37,2013-05-25 16:17:00,
2013-05-25 12:20:00,58.8,20.0,29.32,NNE,22,10.4,10.4,22,0.00,CLR,,0.00,WeatherDisplay:10.37,2013-05-25 16:20:00,
2013-05-25 12:21:00,58.8,20.0,29.32,NNE,22,10.4,10.4,22,0.00,CLR,,0.00,WeatherDisplay:10.37,2013-05-25 16:21:00,
2013-05-25 12:22:00,59.2,20.3,29.32,North,0,9.2,9.2,22,0.00,CLR,,0.00,WeatherDisplay:10.37,2013-05-25 16:22:00,
2013-05-25 12:25:00,59.9,20.9,29.32,NNW,338,8.1,8.1,22,0.00,CLR,,0.00,WeatherDisplay:10.37,2013-05-25 16:25:00,
2013-05-25 12:26:00,59.7,20.8,29.32,NNE,22,5.8,5.8,22,0.00,CLR,,0.00,WeatherDisplay:10.37,2013-05-25 16:26:00,
2013-05-25 12:27:00,59.7,20.8,29.32,NNE,22,4.0,4.0,22,0.00,CLR,,0.00,WeatherDisplay:10.37,2013-05-25 16:27:00,
2013-05-25 12:31:00,59.9,20.9,29.32,North,0,12.1,12.1,22,0.00,CLR,,0.00,WeatherDisplay:10.37,2013-05-25 16:31:00,
2013-05-25 12:32:00,59.9,20.9,29.32,NNE,22,12.7,12.7,22,0.00,CLR,,0.00,WeatherDisplay:10.37,2013-05-25 16:32:00,
2013-05-25 12:36:00,59.9,20.9,29.32,NNE,22,10.4,10.4,22,0.00,CLR,,0.00,WeatherDisplay:10.37,2013-05-25 16:36:00,
2013-05-25 12:37:00,60.1,21.1,29.32,NE,45,9.2,9.2,22,0.00,CLR,,0.00,WeatherDisplay:10.37,2013-05-25 16:37:00,
2013-05-25 12:38:00,60.1,21.1,29.32,South,180,5.8,5.8,22,0.00,CLR,,0.00,WeatherDisplay:10.37,2013-05-25 16:38:00,
2013-05-25 12:41:00,60.6,18.1,29.32,North,0,5.8,5.8,19,0.00,CLR,,0.00,WeatherDisplay:10.37,2013-05-25 16:41:00,
2013-05-25 12:42:00,60.3,21.2,29.32,NNW,338,6.9,6.9,22,0.00,CLR,,0.00,WeatherDisplay:10.37,2013-05-25 16:42:00,
2013-05-25 12:43:00,60.3,21.2,29.32,North,0,10.5,10.5,22,0.00,CLR,,0.00,WeatherDisplay:10.37,2013-05-25 16:43:00,
2013-05-25 12:46:00,60.4,21.4,29.32,NE,45,11.5,11.5,22,0.00,CLR,,0.00,WeatherDisplay:10.37,2013-05-25 16:46:00,
2013-05-25 12:47:00,60.4,21.4,29.32,NNE,22,11.5,11.5,22,0.00,CLR,,0.00,WeatherDisplay:10.37,2013-05-25 16:47:00,
2013-05-25 12:48:00,60.1,17.6,29.32,NNE,22,8.5,8.5,19,0.00,CLR,,0.00,WeatherDisplay:10.37,2013-05-25 16:48:00,
2013-05-25 12:51:00,60.1,21.1,29.32,NNE,22,9.2,9.2,22,0.00,CLR,,0.00,WeatherDisplay:10.37,2013-05-25 16:51:00,
2013-05-25 12:52:00,60.1,21.1,29.32,NNE,22,9.2,9.2,22,0.00,CLR,,0.00,WeatherDisplay:10.37,2013-05-25 16:52:00,
2013-05-25 12:53:00,60.3,21.2,29.32,NNW,338,8.1,8.1,22,0.00,CLR,,0.00,WeatherDisplay:10.37,2013-05-25 16:53:00,
2013-05-25 12:57:00,61.9,19.1,29.32,North,0,3.5,3.5,19,0.00,CLR,,0.00,WeatherDisplay:10.37,2013-05-25 16:57:00,
2013-05-25 12:58:00,62.1,19.3,29.32,NNE,22,4.6,4.6,19,0.00,CLR,,0.00,WeatherDisplay:10.37,2013-05-25 16:58:00,
2013-05-25 12:59:00,62.1,19.3,29.32,ESE,112,3.5,3.5,19,0.00,CLR,,0.00,WeatherDisplay:10.37,2013-05-25 16:59:00,
2013-05-25 13:02:00,62.6,18.4,29.32,NNW,338,1.6,0.0,18,0.00,CLR,,0.00,WeatherDisplay:10.37,2013-05-25 17:02:00,
2013-05-25 13:03:00,62.6,18.4,29.32,NNE,22,3.8,3.8,18,0.00,CLR,,0.00,WeatherDisplay:10.37,2013-05-25 17:03:00,
2013-05-25 13:04:00,63.0,18.7,29.32,NNE,22,6.9,6.9,18,0.00,CLR,,0.00,WeatherDisplay:10.37,2013-05-25 17:04:00,
2013-05-25 13:07:00,62.4,19.6,29.32,NNW,338,8.1,8.1,19,0.00,CLR,,0.00,WeatherDisplay:10.37,2013-05-25 17:07:00,
2013-05-25 13:08:00,61.7,19.0,29.32,WNW,292,8.1,8.1,19,0.00,CLR,,0.00,WeatherDisplay:10.37,2013-05-25 17:08:00,
2013-05-25 13:09:00,61.7,19.0,29.32,NNW,338,5.8,5.8,19,0.00,CLR,,0.00,WeatherDisplay:10.37,2013-05-25 17:09:00,
2013-05-25 13:12:00,61.9,19.1,29.32,North,0,8.1,8.1,19,0.00,CLR,,0.00,WeatherDisplay:10.37,2013-05-25 17:12:00,
2013-05-25 13:13:00,61.9,19.1,29.32,NNE,22,6.9,6.9,19,0.00,CLR,,0.00,WeatherDisplay:10.37,2013-05-25 17:13:00,
2013-05-25 13:14:00,61.9,19.1,29.32,WSW,248,8.1,8.1,19,0.00,CLR,,0.00,WeatherDisplay:10.37,2013-05-25 17:14:00,
2013-05-25 13:17:00,61.7,19.0,29.32,NW,315,8.1,8.1,19,0.00,CLR,,0.00,WeatherDisplay:10.37,2013-05-25 17:17:00,
2013-05-25 13:18:00,61.7,19.0,29.32,NNW,338,5.8,5.8,19,0.00,CLR,,0.00,WeatherDisplay:10.37,2013-05-25 17:18:00,
2013-05-25 13:19:00,61.7,19.0,29.32,NNE,22,6.7,6.7,19,0.00,CLR,,0.00,WeatherDisplay:10.37,2013-05-25 17:19:00,
2013-05-25 13:20:00,61.7,19.0,29.32,North,0,6.9,6.9,19,0.00,CLR,,0.00,WeatherDisplay:10.37,2013-05-25 17:20:00,
2013-05-25 13:23:00,62.2,19.4,29.32,NNW,338,8.7,8.7,19,0.00,CLR,,0.00,WeatherDisplay:10.37,2013-05-25 17:23:00,
2013-05-25 13:24:00,61.9,19.1,29.32,NNE,22,9.2,9.2,19,0.00,CLR,,0.00,WeatherDisplay:10.37,2013-05-25 17:24:00,
2013-05-25 13:25:00,62.2,19.4,29.32,NNE,22,5.8,5.8,19,0.00,CLR,,0.00,WeatherDisplay:10.37,2013-05-25 17:25:00,
2013-05-25 13:28:00,62.6,18.4,29.32,NNE,22,6.9,6.9,18,0.00,CLR,,0.00,WeatherDisplay:10.37,2013-05-25 17:28:00,
2013-05-25 13:29:00,62.6,18.4,29.32,North,0,6.9,6.9,18,0.00,CLR,,0.00,WeatherDisplay:10.37,2013-05-25 17:29:00,
2013-05-25 13:30:00,63.0,18.7,29.32,North,0,4.6,4.6,18,0.00,CLR,,0.00,WeatherDisplay:10.37,2013-05-25 17:30:00,
2013-05-25 13:33:00,63.1,18.9,29.32,North,0,4.6,4.6,18,0.00,CLR,,0.00,WeatherDisplay:10.37,2013-05-25 17:33:00,
2013-05-25 13:34:00,63.3,19.0,29.32,NNE,22,4.0,0.0,18,0.00,CLR,,0.00,WeatherDisplay:10.37,2013-05-25 17:34:00,
2013-05-25 13:36:00,63.5,19.2,29.32,NNE,22,2.3,3.1,18,0.00,CLR,,0.00,WeatherDisplay:10.37,2013-05-25 17:36:00,
2013-05-25 13:38:00,63.5,19.2,29.32,NNE,22,6.9,6.9,18,0.00,CLR,,0.00,WeatherDisplay:10.37,2013-05-25 17:38:00,
2013-05-25 13:39:00,63.5,19.2,29.32,WNW,292,6.9,6.9,18,0.00,CLR,,0.00,WeatherDisplay:10.37,2013-05-25 17:39:00,
2013-05-25 13:41:00,62.8,18.6,29.32,NNE,22,7.1,7.1,18,0.00,CLR,,0.00,WeatherDisplay:10.37,2013-05-25 17:41:00,
2013-05-25 13:43:00,62.6,18.4,29.32,NNE,22,10.4,10.4,18,0.00,CLR,,0.00,WeatherDisplay:10.37,2013-05-25 17:43:00,
2013-05-25 13:44:00,63.0,18.7,29.32,NNE,22,9.8,9.8,18,0.00,CLR,,0.00,WeatherDisplay:10.37,2013-05-25 17:44:00,
2013-05-25 13:46:00,63.0,18.7,29.32,NNE,22,12.7,12.7,18,0.00,CLR,,0.00,WeatherDisplay:10.37,2013-05-25 17:46:00,
2013-05-25 13:48:00,63.5,19.2,29.32,NNE,22,10.4,10.4,18,0.00,CLR,,0.00,WeatherDisplay:10.37,2013-05-25 17:48:00,
2013-05-25 13:49:00,63.7,19.3,29.32,NNE,22,9.2,9.2,18,0.00,CLR,,0.00,WeatherDisplay:10.37,2013-05-25 17:49:00,
2013-05-25 13:51:00,64.2,19.8,29.32,NNE,22,10.4,10.4,18,0.00,CLR,,0.00,WeatherDisplay:10.37,2013-05-25 17:51:00,
2013-05-25 13:54:00,64.4,19.9,29.32,NNE,22,9.2,9.2,18,0.00,CLR,,0.00,WeatherDisplay:10.37,2013-05-25 17:54:00,
2013-05-25 13:55:00,64.8,20.2,29.32,NNE,22,10.4,10.4,18,0.00,CLR,,0.00,WeatherDisplay:10.37,2013-05-25 17:55:00,
2013-05-25 13:57:00,65.1,20.5,29.32,NNE,22,8.1,8.1,18,0.00,CLR,,0.00,WeatherDisplay:10.37,2013-05-25 17:57:00,
2013-05-25 13:59:00,65.3,20.7,29.32,NNE,22,6.0,6.0,18,0.00,CLR,,0.00,WeatherDisplay:10.37,2013-05-25 17:59:00,
2013-05-25 14:00:00,65.5,20.8,29.32,NNE,22,8.1,8.1,18,0.00,CLR,,0.00,WeatherDisplay:10.37,2013-05-25 18:00:00,
2013-05-25 14:02:00,65.5,20.8,29.32,NNE,22,5.8,5.9,18,0.00,CLR,,0.00,WeatherDisplay:10.37,2013-05-25 18:02:00,
2013-05-25 14:04:00,66.2,20.0,29.32,NW,315,10.4,10.4,17,0.00,CLR,,0.00,WeatherDisplay:10.37,2013-05-25 18:04:00,
2013-05-25 14:05:00,64.4,19.9,29.32,West,270,10.4,10.4,18,0.00,CLR,,0.00,WeatherDisplay:10.37,2013-05-25 18:05:00,
2013-05-25 14:07:00,64.4,19.9,29.32,NNE,22,11.5,11.5,18,0.00,CLR,,0.00,WeatherDisplay:10.37,2013-05-25 18:07:00,
2013-05-25 14:09:00,64.6,20.1,29.32,WNW,292,8.1,8.1,18,0.00,CLR,,0.00,WeatherDisplay:10.37,2013-05-25 18:09:00,
2013-05-25 14:10:00,64.6,20.1,29.32,NNE,22,7.4,0.0,18,0.00,CLR,,0.00,WeatherDisplay:10.37,2013-05-25 18:10:00,
2013-05-25 14:11:00,64.6,20.1,29.32,NNE,22,9.8,9.8,18,0.00,CLR,,0.00,WeatherDisplay:10.37,2013-05-25 18:11:00,
2013-05-25 14:12:00,65.1,20.5,29.32,NNE,22,9.2,9.2,18,0.00,CLR,,0.00,WeatherDisplay:10.37,2013-05-25 18:12:00,
2013-05-25 14:14:00,64.8,20.2,29.32,NNE,22,10.4,10.4,18,0.00,CLR,,0.00,WeatherDisplay:10.37,2013-05-25 18:14:00,
2013-05-25 14:15:00,64.8,20.2,29.32,NNE,22,8.1,8.1,18,0.00,CLR,,0.00,WeatherDisplay:10.37,2013-05-25 18:15:00,
2013-05-25 14:16:00,64.8,20.2,29.32,NNE,22,8.1,8.1,18,0.00,CLR,,0.00,WeatherDisplay:10.37,2013-05-25 18:16:00,
2013-05-25 14:17:00,64.8,20.2,29.32,NNE,22,6.9,6.9,18,0.00,CLR,,0.00,WeatherDisplay:10.37,2013-05-25 18:17:00,
2013-05-25 14:20:00,64.2,19.8,29.32,NNW,338,9.2,9.2,18,0.00,CLR,,0.00,WeatherDisplay:10.37,2013-05-25 18:20:00,
2013-05-25 14:21:00,63.9,19.5,29.32,NNE,22,5.8,5.8,18,0.00,CLR,,0.00,WeatherDisplay:10.37,2013-05-25 18:21:00,
2013-05-25 14:22:00,63.9,19.5,29.32,NNW,338,5.8,5.8,18,0.00,CLR,,0.00,WeatherDisplay:10.37,2013-05-25 18:22:00,
2013-05-25 14:25:00,63.7,19.3,29.32,NNE,22,5.8,5.8,18,0.00,CLR,,0.00,WeatherDisplay:10.37,2013-05-25 18:25:00,
2013-05-25 14:26:00,64.0,19.6,29.32,NNW,338,5.8,5.8,18,0.00,CLR,,0.00,WeatherDisplay:10.37,2013-05-25 18:26:00,
2013-05-25 14:27:00,63.9,19.5,29.32,North,0,5.8,5.8,18,0.00,CLR,,0.00,WeatherDisplay:10.37,2013-05-25 18:27:00,
2013-05-25 14:30:00,65.3,20.7,29.32,NNE,22,7.1,7.1,18,0.00,CLR,,0.00,WeatherDisplay:10.37,2013-05-25 18:30:00,
2013-05-25 14:32:00,65.5,20.8,29.32,NNE,22,5.8,5.8,18,0.00,CLR,,0.00,WeatherDisplay:10.37,2013-05-25 18:32:00,
2013-05-25 14:33:00,65.5,20.8,29.32,ENE,68,3.5,3.5,18,0.00,CLR,,0.00,WeatherDisplay:10.37,2013-05-25 18:33:00,
2013-05-25 14:35:00,64.9,20.4,29.32,NE,45,8.7,8.7,18,0.00,CLR,,0.00,WeatherDisplay:10.37,2013-05-25 18:35:00,
2013-05-25 14:36:00,65.1,20.5,29.32,NNE,22,10.4,10.4,18,0.00,CLR,,0.00,WeatherDisplay:10.37,2013-05-25 18:36:00,
2013-05-25 14:37:00,65.1,20.5,29.32,NNE,22,9.2,9.2,18,0.00,CLR,,0.00,WeatherDisplay:10.37,2013-05-25 18:37:00,
2013-05-25 14:38:00,64.8,20.2,29.32,North,0,9.8,9.8,18,0.00,CLR,,0.00,WeatherDisplay:10.37,2013-05-25 18:38:00,
2013-05-25 14:40:00,64.6,20.1,29.32,NNW,338,13.8,13.8,18,0.00,CLR,,0.00,WeatherDisplay:10.37,2013-05-25 18:40:00,
2013-05-25 14:41:00,63.9,19.5,29.32,NNE,22,10.4,10.4,18,0.00,CLR,,0.00,WeatherDisplay:10.37,2013-05-25 18:41:00,
2013-05-25 14:42:00,63.9,19.5,29.32,NNE,22,10.4,10.4,18,0.00,CLR,,0.00,WeatherDisplay:10.37,2013-05-25 18:42:00,
2013-05-25 14:43:00,64.9,20.4,29.32,NNW,338,8.1,8.1,18,0.00,CLR,,0.00,WeatherDisplay:10.37,2013-05-25 18:43:00,
2013-05-25 14:45:00,65.7,21.0,29.32,NNW,338,6.9,6.9,18,0.00,CLR,,0.00,WeatherDisplay:10.37,2013-05-25 18:45:00,
2013-05-25 14:46:00,65.7,21.0,29.32,North,0,7.8,7.8,18,0.00,CLR,,0.00,WeatherDisplay:10.37,2013-05-25 18:46:00,
2013-05-25 14:47:00,65.7,21.0,29.32,NNE,22,8.1,8.1,18,0.00,CLR,,0.00,WeatherDisplay:10.37,2013-05-25 18:47:00,
2013-05-25 14:48:00,65.8,21.1,29.32,NNW,338,8.1,8.1,18,0.00,CLR,,0.00,WeatherDisplay:10.37,2013-05-25 18:48:00,
2013-05-25 14:50:00,65.7,21.0,29.32,WNW,292,6.2,6.2,18,0.00,CLR,,0.00,WeatherDisplay:10.37,2013-05-25 18:50:00,
2013-05-25 14:51:00,65.7,21.0,29.32,NNW,338,7.1,7.1,18,0.00,CLR,,0.00,WeatherDisplay:10.37,2013-05-25 18:51:00,
2013-05-25 14:52:00,64.9,20.4,29.32,North,0,6.9,6.9,18,0.00,CLR,,0.00,WeatherDisplay:10.37,2013-05-25 18:52:00,
2013-05-25 14:54:00,64.8,16.0,29.32,NNE,22,10.4,10.4,15,0.00,CLR,,0.00,WeatherDisplay:10.37,2013-05-25 18:54:00,
2013-05-25 14:55:00,65.8,21.1,29.32,North,0,10.4,10.4,18,0.00,CLR,,0.00,WeatherDisplay:10.37,2013-05-25 18:55:00,
2013-05-25 14:56:00,66.2,17.1,29.32,NNE,22,10.4,10.4,15,0.00,CLR,,0.00,WeatherDisplay:10.37,2013-05-25 18:56:00,
2013-05-25 14:57:00,66.2,17.1,29.32,NNE,22,9.7,9.7,15,0.00,CLR,,0.00,WeatherDisplay:10.37,2013-05-25 18:57:00,
2013-05-25 14:59:00,66.7,17.6,29.32,NNE,22,8.1,8.1,15,0.00,CLR,,0.00,WeatherDisplay:10.37,2013-05-25 18:59:00,
2013-05-25 15:00:00,67.6,18.3,29.32,NNE,22,10.4,10.4,15,0.00,CLR,,0.00,WeatherDisplay:10.37,2013-05-25 19:00:00,
2013-05-25 15:02:00,68.0,18.6,29.32,NNE,22,9.2,9.2,15,0.00,CLR,,0.00,WeatherDisplay:10.37,2013-05-25 19:02:00,
2013-05-25 15:04:00,68.0,18.6,29.32,NNE,22,8.1,8.1,15,0.00,CLR,,0.00,WeatherDisplay:10.37,2013-05-25 19:04:00,
2013-05-25 15:05:00,67.5,18.1,29.32,NNE,22,10.7,10.7,15,0.00,CLR,,0.00,WeatherDisplay:10.37,2013-05-25 19:05:00,
2013-05-25 15:07:00,66.9,17.7,29.32,ESE,112,10.4,10.4,15,0.00,CLR,,0.00,WeatherDisplay:10.37,2013-05-25 19:07:00,
2013-05-25 15:08:00,67.3,18.0,29.32,North,0,7.6,7.6,15,0.00,CLR,,0.00,WeatherDisplay:10.37,2013-05-25 19:08:00,
2013-05-25 15:09:00,66.9,17.7,29.32,NNE,22,12.7,12.7,15,0.00,CLR,,0.00,WeatherDisplay:10.37,2013-05-25 19:09:00,
2013-05-25 15:11:00,67.6,18.3,29.32,ENE,68,10.4,10.4,15,0.00,CLR,,0.00,WeatherDisplay:10.37,2013-05-25 19:11:00,
2013-05-25 15:12:00,67.8,18.4,29.32,NNE,22,3.5,0.0,15,0.00,CLR,,0.00,WeatherDisplay:10.37,2013-05-25 19:12:00,
2013-05-25 15:13:00,68.4,18.9,29.32,NNE,22,8.1,8.1,15,0.00,CLR,,0.00,WeatherDisplay:10.37,2013-05-25 19:13:00,
2013-05-25 15:15:00,68.4,18.9,29.32,NNE,22,8.1,8.1,15,0.00,CLR,,0.00,WeatherDisplay:10.37,2013-05-25 19:15:00,
2013-05-25 15:16:00,69.6,19.9,29.32,NW,315,8.1,8.1,15,0.00,CLR,,0.00,WeatherDisplay:10.37,2013-05-25 19:16:00,
2013-05-25 15:17:00,68.9,19.3,29.29,NNE,22,9.2,9.2,15,0.00,CLR,,0.00,WeatherDisplay:10.37,2013-05-25 19:17:00,
2013-05-25 15:18:00,68.9,19.3,29.29,WNW,292,9.2,9.2,15,0.00,CLR,,0.00,WeatherDisplay:10.37,2013-05-25 19:18:00,
2013-05-25 15:20:00,68.2,18.7,29.29,NNW,338,10.4,10.4,15,0.00,CLR,,0.00,WeatherDisplay:10.37,2013-05-25 19:20:00,
2013-05-25 15:21:00,67.5,18.1,29.29,NNE,22,8.1,8.1,15,0.00,CLR,,0.00,WeatherDisplay:10.37,2013-05-25 19:21:00,
2013-05-25 15:22:00,68.2,18.7,29.29,West,270,8.1,8.1,15,0.00,CLR,,0.00,WeatherDisplay:10.37,2013-05-25 19:22:00,
2013-05-25 15:23:00,68.2,18.7,29.29,NNW,338,6.9,6.9,15,0.00,CLR,,0.00,WeatherDisplay:10.37,2013-05-25 19:23:00,
2013-05-25 15:25:00,68.7,19.1,29.29,NNE,22,12.1,12.1,15,0.00,CLR,,0.00,WeatherDisplay:10.37,2013-05-25 19:25:00,
2013-05-25 15:26:00,69.1,19.4,29.29,North,0,12.7,12.7,15,0.00,CLR,,0.00,WeatherDisplay:10.37,2013-05-25 19:26:00,
2013-05-25 15:27:00,69.1,19.4,29.29,NNE,22,13.0,13.0,15,0.00,CLR,,0.00,WeatherDisplay:10.37,2013-05-25 19:27:00,
2013-05-25 15:28:00,69.4,19.7,29.29,NNW,338,17.3,17.3,15,0.00,CLR,,0.00,WeatherDisplay:10.37,2013-05-25 19:28:00,
2013-05-25 15:29:00,68.7,19.1,29.29,NNW,338,12.7,12.7,15,0.00,CLR,,0.00,WeatherDisplay:10.37,2013-05-25 19:29:00,
2013-05-25 15:30:00,68.7,19.1,29.29,NE,45,10.4,10.4,15,0.00,CLR,,0.00,WeatherDisplay:10.37,2013-05-25 19:30:00,
2013-05-25 15:31:00,67.8,18.4,29.29,NW,315,10.4,10.4,15,0.00,CLR,,0.00,WeatherDisplay:10.37,2013-05-25 19:31:00,
2013-05-25 15:32:00,67.8,18.4,29.29,WNW,292,8.1,8.1,15,0.00,CLR,,0.00,WeatherDisplay:10.37,2013-05-25 19:32:00,
2013-05-25 15:33:00,67.6,18.3,29.29,NNE,22,6.9,6.9,15,0.00,CLR,,0.00,WeatherDisplay:10.37,2013-05-25 19:33:00,
2013-05-25 15:34:00,68.2,18.7,29.29,NNE,22,8.1,8.1,15,0.00,CLR,,0.00,WeatherDisplay:10.37,2013-05-25 19:34:00,
2013-05-25 15:35:00,68.2,18.7,29.29,NNE,22,8.1,8.1,15,0.00,CLR,,0.00,WeatherDisplay:10.37,2013-05-25 19:35:00,
2013-05-25 15:36:00,69.8,18.4,29.29,NNW,338,8.5,8.5,14,0.00,CLR,,0.00,WeatherDisplay:10.37,2013-05-25 19:36:00,
2013-05-25 15:37:00,70.3,18.8,29.29,NNE,22,12.5,12.5,14,0.00,CLR,,0.00,WeatherDisplay:10.37,2013-05-25 19:37:00,
2013-05-25 15:38:00,70.3,18.8,29.29,NNE,22,12.7,12.7,14,0.00,CLR,,0.00,WeatherDisplay:10.37,2013-05-25 19:38:00,
2013-05-25 15:39:00,70.3,18.8,29.29,NNE,22,12.8,12.8,14,0.00,CLR,,0.00,WeatherDisplay:10.37,2013-05-25 19:39:00,
2013-05-25 15:40:00,71.6,19.8,29.29,North,0,12.7,12.7,14,0.00,CLR,,0.00,WeatherDisplay:10.37,2013-05-25 19:40:00,
2013-05-25 15:41:00,71.6,19.8,29.29,NNE,22,10.4,10.4,14,0.00,CLR,,0.00,WeatherDisplay:10.37,2013-05-25 19:41:00,
2013-05-25 15:43:00,72.1,20.3,29.29,NNE,22,8.1,8.1,14,0.00,CLR,,0.00,WeatherDisplay:10.37,2013-05-25 19:43:00,
2013-05-25 15:44:00,72.1,20.3,29.29,NNE,22,9.2,9.2,14,0.00,CLR,,0.00,WeatherDisplay:10.37,2013-05-25 19:44:00,
2013-05-25 15:45:00,72.7,20.7,29.29,NNE,22,11.2,11.2,14,0.00,CLR,,0.00,WeatherDisplay:10.37,2013-05-25 19:45:00,
2013-05-25 15:47:00,72.1,20.3,29.29,NNE,22,10.4,10.4,14,0.00,CLR,,0.00,WeatherDisplay:10.37,2013-05-25 19:47:00,
2013-05-25 15:49:00,72.0,20.1,29.29,North,0,8.1,8.1,14,0.00,CLR,,0.00,WeatherDisplay:10.37,2013-05-25 19:49:00,
2013-05-25 15:50:00,72.5,20.5,29.29,NNE,22,6.9,6.9,14,0.00,CLR,,0.00,WeatherDisplay:10.37,2013-05-25 19:50:00,
2013-05-25 15:52:00,73.0,21.0,29.29,NNE,22,10.4,10.4,14,0.00,CLR,,0.00,WeatherDisplay:10.37,2013-05-25 19:52:00,
2013-05-25 15:54:00,73.8,19.8,29.29,SSE,158,9.2,9.2,13,0.00,CLR,,0.00,WeatherDisplay:10.37,2013-05-25 19:54:00,
2013-05-25 15:55:00,72.9,20.8,29.29,NNE,22,3.5,3.5,14,0.00,CLR,,0.00,WeatherDisplay:10.37,2013-05-25 19:55:00,
2013-05-25 15:56:00,73.4,19.5,29.29,NNE,22,5.9,5.9,13,0.00,CLR,,0.00,WeatherDisplay:10.37,2013-05-25 19:56:00,
2013-05-25 15:57:00,73.2,21.1,29.29,NNE,22,10.4,10.4,14,0.00,CLR,,0.00,WeatherDisplay:10.37,2013-05-25 19:57:00,
2013-05-25 15:59:00,73.9,19.9,29.29,NNE,22,11.5,11.5,13,0.00,CLR,,0.00,WeatherDisplay:10.37,2013-05-25 19:59:00,
2013-05-25 16:00:00,74.7,20.5,29.29,North,0,10.4,10.4,13,0.00,CLR,,0.00,WeatherDisplay:10.37,2013-05-25 20:00:00,
2013-05-25 16:01:00,74.7,20.5,29.29,NNW,338,10.4,10.4,13,0.00,CLR,,0.00,WeatherDisplay:10.37,2013-05-25 20:01:00,
2013-05-25 16:03:00,75.0,20.8,29.29,NNE,22,10.4,10.4,13,0.00,CLR,,0.00,WeatherDisplay:10.37,2013-05-25 20:03:00,
2013-05-25 16:04:00,75.6,21.2,29.29,NNE,22,8.1,8.1,13,0.00,CLR,,0.00,WeatherDisplay:10.37,2013-05-25 20:04:00,
2013-05-25 16:05:00,75.6,21.2,29.29,NNE,22,6.2,6.2,13,0.00,CLR,,0.00,WeatherDisplay:10.37,2013-05-25 20:05:00,
2013-05-25 16:06:00,75.7,21.4,29.29,North,0,6.9,6.9,13,0.00,CLR,,0.00,WeatherDisplay:10.37,2013-05-25 20:06:00,
2013-05-25 16:08:00,74.8,20.7,29.29,NNE,22,11.5,11.5,13,0.00,CLR,,0.00,WeatherDisplay:10.37,2013-05-25 20:08:00,
2013-05-25 16:09:00,75.4,21.1,29.29,NNW,338,9.2,9.2,13,0.00,CLR,,0.00,WeatherDisplay:10.37,2013-05-25 20:09:00,
2013-05-25 16:10:00,75.4,21.1,29.29,North,0,13.0,13.0,13,0.00,CLR,,0.00,WeatherDisplay:10.37,2013-05-25 20:10:00,
2013-05-25 16:11:00,74.8,20.7,29.29,NNW,338,12.7,12.7,13,0.00,CLR,,0.00,WeatherDisplay:10.37,2013-05-25 20:11:00,
2013-05-25 16:13:00,72.9,20.8,29.29,NNE,22,12.7,12.7,14,0.00,CLR,,0.00,WeatherDisplay:10.37,2013-05-25 20:13:00,
2013-05-25 16:14:00,73.2,21.1,29.29,NNE,22,11.5,11.5,14,0.00,CLR,,0.00,WeatherDisplay:10.37,2013-05-25 20:14:00,
2013-05-25 16:15:00,73.8,19.8,29.29,ENE,68,10.4,10.4,13,0.00,CLR,,0.00,WeatherDisplay:10.37,2013-05-25 20:15:00,
2013-05-25 16:17:00,73.2,21.1,29.29,NNE,22,6.9,6.9,14,0.00,CLR,,0.00,WeatherDisplay:10.37,2013-05-25 20:17:00,
2013-05-25 16:18:00,74.7,20.5,29.29,NNE,22,9.7,9.7,13,0.00,CLR,,0.00,WeatherDisplay:10.37,2013-05-25 20:18:00,
2013-05-25 16:19:00,74.7,20.5,29.29,NNE,22,9.2,9.2,13,0.00,CLR,,0.00,WeatherDisplay:10.37,2013-05-25 20:19:00,
2013-05-25 16:20:00,75.2,20.9,29.29,NNE,22,10.4,10.4,13,0.00,CLR,,0.00,WeatherDisplay:10.37,2013-05-25 20:20:00,
2013-05-25 16:22:00,75.9,21.5,29.29,NNE,22,10.4,10.4,13,0.00,CLR,,0.00,WeatherDisplay:10.37,2013-05-25 20:22:00,
2013-05-25 16:24:00,76.3,21.8,29.29,NNE,22,8.5,8.5,13,0.00,CLR,,0.00,WeatherDisplay:10.37,2013-05-25 20:24:00,
2013-05-25 16:25:00,76.5,21.9,29.29,NNE,22,10.0,10.0,13,0.00,CLR,,0.00,WeatherDisplay:10.37,2013-05-25 20:25:00,
2013-05-25 16:28:00,75.9,21.5,29.29,NNE,22,8.1,8.1,13,0.00,CLR,,0.00,WeatherDisplay:10.37,2013-05-25 20:28:00,
2013-05-25 16:29:00,75.2,20.9,29.29,NNE,22,9.2,9.2,13,0.00,CLR,,0.00,WeatherDisplay:10.37,2013-05-25 20:29:00,
2013-05-25 16:30:00,74.1,20.1,29.29,NNE,22,10.4,10.4,13,0.00,CLR,,0.00,WeatherDisplay:10.37,2013-05-25 20:30:00,
2013-05-25 16:31:00,74.3,20.2,29.29,NNE,22,10.4,10.4,13,0.00,CLR,,0.00,WeatherDisplay:10.37,2013-05-25 20:31:00,
2013-05-25 16:33:00,73.4,19.5,29.29,NNW,338,10.4,10.4,13,0.00,CLR,,0.00,WeatherDisplay:10.37,2013-05-25 20:33:00,
2013-05-25 16:34:00,73.4,19.5,29.29,NNE,22,10.4,10.4,13,0.00,CLR,,0.00,WeatherDisplay:10.37,2013-05-25 20:34:00,
2013-05-25 16:35:00,72.5,20.5,29.29,NNE,22,5.9,5.9,14,0.00,CLR,,0.00,WeatherDisplay:10.37,2013-05-25 20:35:00,
2013-05-25 16:36:00,73.9,19.9,29.29,NNE,22,10.4,10.4,13,0.00,CLR,,0.00,WeatherDisplay:10.37,2013-05-25 20:36:00,
2013-05-25 16:38:00,75.4,21.1,29.29,NNE,22,10.4,10.4,13,0.00,CLR,,0.00,WeatherDisplay:10.37,2013-05-25 20:38:00,
2013-05-25 16:39:00,75.4,21.1,29.29,NNE,22,10.4,10.4,13,0.00,CLR,,0.00,WeatherDisplay:10.37,2013-05-25 20:39:00,
2013-05-25 16:40:00,75.9,21.5,29.29,NNE,22,11.5,11.5,13,0.00,CLR,,0.00,WeatherDisplay:10.37,2013-05-25 20:40:00,
2013-05-25 16:41:00,75.9,21.5,29.29,NNE,22,11.8,11.8,13,0.00,CLR,,0.00,WeatherDisplay:10.37,2013-05-25 20:41:00,
2013-05-25 16:43:00,76.5,21.9,29.29,NNE,22,10.4,10.4,13,0.00,CLR,,0.00,WeatherDisplay:10.37,2013-05-25 20:43:00,
2013-05-25 16:44:00,77.0,22.4,29.29,North,0,6.9,6.9,13,0.00,CLR,,0.00,WeatherDisplay:10.37,2013-05-25 20:44:00,
2013-05-25 16:45:00,77.7,22.9,29.29,NNE,22,6.9,6.9,13,0.00,CLR,,0.00,WeatherDisplay:10.37,2013-05-25 20:45:00,
2013-05-25 16:46:00,78.3,23.3,29.29,ENE,68,4.6,5.9,13,0.00,CLR,,0.00,WeatherDisplay:10.37,2013-05-25 20:46:00,
2013-05-25 16:49:00,74.8,20.7,29.29,NNW,338,8.1,8.1,13,0.00,CLR,,0.00,WeatherDisplay:10.37,2013-05-25 20:49:00,
2013-05-25 16:50:00,74.7,20.5,29.29,NNE,22,12.7,12.7,13,0.00,CLR,,0.00,WeatherDisplay:10.37,2013-05-25 20:50:00,
2013-05-25 16:51:00,75.2,20.9,29.29,NNE,22,10.4,10.4,13,0.00,CLR,,0.00,WeatherDisplay:10.37,2013-05-25 20:51:00,
2013-05-25 16:54:00,76.8,22.2,29.29,NNE,22,12.7,12.7,13,0.00,CLR,,0.00,WeatherDisplay:10.37,2013-05-25 20:54:00,
2013-05-25 16:56:00,75.9,21.5,29.29,NNE,22,12.7,12.7,13,0.00,CLR,,0.00,WeatherDisplay:10.37,2013-05-25 20:56:00,
2013-05-25 16:57:00,76.3,21.8,29.29,NNE,22,9.2,9.2,13,0.00,CLR,,0.00,WeatherDisplay:10.37,2013-05-25 20:57:00,
2013-05-25 16:59:00,75.9,21.5,29.29,NNE,22,5.8,5.8,13,0.00,CLR,,0.00,WeatherDisplay:10.37,2013-05-25 20:59:00,
2013-05-25 17:01:00,76.8,22.2,29.29,North,0,8.1,8.1,13,0.00,CLR,,0.00,WeatherDisplay:10.37,2013-05-25 21:01:00,
2013-05-25 17:02:00,77.4,22.6,29.29,NNW,338,12.8,12.8,13,0.00,CLR,,0.00,WeatherDisplay:10.37,2013-05-25 21:02:00,
2013-05-25 17:04:00,76.5,21.9,29.29,North,0,9.2,9.2,13,0.00,CLR,,0.00,WeatherDisplay:10.37,2013-05-25 21:04:00,
2013-05-25 17:06:00,76.3,21.8,29.29,NNE,22,10.5,10.5,13,0.00,CLR,,0.00,WeatherDisplay:10.37,2013-05-25 21:06:00,
2013-05-25 17:07:00,76.3,21.8,29.29,NNE,22,10.4,10.4,13,0.00,CLR,,0.00,WeatherDisplay:10.37,2013-05-25 21:07:00,
2013-05-25 17:09:00,74.8,20.6,29.29,North,350,5.0,11.0,13,0.00,CLR,,0.00,WeatherDisplay:10.37,2013-05-25 21:09:00,
2013-05-25 17:10:00,74.5,20.4,29.29,NNW,338,4.6,4.6,13,0.00,CLR,,0.00,WeatherDisplay:10.37,2013-05-25 21:10:00,
2013-05-25 17:11:00,73.2,21.1,29.29,North,0,7.4,7.4,14,0.00,CLR,,0.00,WeatherDisplay:10.37,2013-05-25 21:11:00,
2013-05-25 17:12:00,73.2,21.1,29.29,NNE,22,8.1,8.1,14,0.00,CLR,,0.00,WeatherDisplay:10.37,2013-05-25 21:12:00,
2013-05-25 17:13:00,73.2,21.1,29.29,NNE,22,8.1,8.1,14,0.00,CLR,,0.00,WeatherDisplay:10.37,2013-05-25 21:13:00,
2013-05-25 17:15:00,75.2,20.9,29.29,North,0,5.8,5.8,13,0.00,CLR,,0.00,WeatherDisplay:10.37,2013-05-25 21:15:00,
2013-05-25 17:17:00,76.6,22.1,29.29,NNE,22,10.4,10.4,13,0.00,CLR,,0.00,WeatherDisplay:10.37,2013-05-25 21:17:00,
2013-05-25 17:18:00,75.9,21.5,29.29,NNE,22,11.5,11.5,13,0.00,CLR,,0.00,WeatherDisplay:10.37,2013-05-25 21:18:00,
2013-05-25 17:20:00,76.6,22.1,29.29,NNW,338,8.1,8.1,13,0.00,CLR,,0.00,WeatherDisplay:10.37,2013-05-25 21:20:00,
2013-05-25 17:22:00,77.0,22.4,29.29,NE,45,9.2,9.2,13,0.00,CLR,,0.00,WeatherDisplay:10.37,2013-05-25 21:22:00,
2013-05-25 17:23:00,75.9,21.5,29.29,NNE,22,15.0,15.0,13,0.00,CLR,,0.00,WeatherDisplay:10.37,2013-05-25 21:23:00,
2013-05-25 17:25:00,75.6,21.2,29.29,NNE,22,9.2,9.2,13,0.00,CLR,,0.00,WeatherDisplay:10.37,2013-05-25 21:25:00,
2013-05-25 17:26:00,74.8,20.7,29.29,NNE,22,6.9,6.9,13,0.00,CLR,,0.00,WeatherDisplay:10.37,2013-05-25 21:26:00,
2013-05-25 17:27:00,74.5,20.4,29.29,NNE,22,5.8,5.8,13,0.00,CLR,,0.00,WeatherDisplay:10.37,2013-05-25 21:27:00,
2013-05-25 17:28:00,74.5,20.4,29.29,NE,45,5.8,5.8,13,0.00,CLR,,0.00,WeatherDisplay:10.37,2013-05-25 21:28:00,
2013-05-25 17:30:00,74.3,20.2,29.29,NNE,22,10.0,10.0,13,0.00,CLR,,0.00,WeatherDisplay:10.37,2013-05-25 21:30:00,
2013-05-25 17:32:00,73.9,19.9,29.29,NE,45,8.1,8.1,13,0.00,CLR,,0.00,WeatherDisplay:10.37,2013-05-25 21:32:00,
2013-05-25 17:33:00,74.1,20.1,29.29,NNE,22,7.6,7.6,13,0.00,CLR,,0.00,WeatherDisplay:10.37,2013-05-25 21:33:00,
2013-05-25 17:36:00,74.5,20.4,29.29,NNE,22,9.2,9.2,13,0.00,CLR,,0.00,WeatherDisplay:10.37,2013-05-25 21:36:00,
2013-05-25 17:37:00,74.5,20.4,29.29,NNW,338,8.5,8.5,13,0.00,CLR,,0.00,WeatherDisplay:10.37,2013-05-25 21:37:00,
2013-05-25 17:38:00,73.8,19.8,29.29,NNE,22,11.5,11.5,13,0.00,CLR,,0.00,WeatherDisplay:10.37,2013-05-25 21:38:00,
2013-05-25 17:41:00,73.6,19.7,29.29,NNE,22,12.7,12.7,13,0.00,CLR,,0.00,WeatherDisplay:10.37,2013-05-25 21:41:00,
2013-05-25 17:42:00,72.3,20.4,29.29,NNE,22,12.8,12.8,14,0.00,CLR,,0.00,WeatherDisplay:10.37,2013-05-25 21:42:00,
2013-05-25 17:43:00,71.8,20.0,29.29,NNE,22,13.5,13.5,14,0.00,CLR,,0.00,WeatherDisplay:10.37,2013-05-25 21:43:00,
2013-05-25 17:44:00,71.1,19.4,29.29,NNE,22,13.8,13.8,14,0.00,CLR,,0.00,WeatherDisplay:10.37,2013-05-25 21:44:00,
2013-05-25 17:46:00,71.8,20.0,29.29,NNE,22,10.4,10.4,14,0.00,CLR,,0.00,WeatherDisplay:10.37,2013-05-25 21:46:00,
2013-05-25 17:47:00,71.2,19.5,29.29,NNE,22,11.5,11.5,14,0.00,CLR,,0.00,WeatherDisplay:10.37,2013-05-25 21:47:00,
2013-05-25 17:48:00,71.2,19.5,29.29,NNE,22,9.2,9.2,14,0.00,CLR,,0.00,WeatherDisplay:10.37,2013-05-25 21:48:00,
2013-05-25 17:49:00,71.8,20.0,29.29,NNE,22,9.2,9.2,14,0.00,CLR,,0.00,WeatherDisplay:10.37,2013-05-25 21:49:00,
2013-05-25 17:51:00,72.0,20.1,29.29,NNE,22,10.0,10.0,14,0.00,CLR,,0.00,WeatherDisplay:10.37,2013-05-25 21:51:00,
2013-05-25 17:53:00,71.1,19.4,29.29,ENE,68,15.0,15.0,14,0.00,CLR,,0.00,WeatherDisplay:10.37,2013-05-25 21:53:00,
2013-05-25 17:54:00,70.5,19.0,29.29,NNE,22,15.0,15.0,14,0.00,CLR,,0.00,WeatherDisplay:10.37,2013-05-25 21:54:00,
2013-05-25 17:56:00,70.7,19.1,29.29,NNE,22,8.1,8.1,14,0.00,CLR,,0.00,WeatherDisplay:10.37,2013-05-25 21:56:00,
2013-05-25 17:58:00,70.3,18.8,29.29,NNE,22,10.2,10.2,14,0.00,CLR,,0.00,WeatherDisplay:10.37,2013-05-25 21:58:00,
2013-05-25 17:59:00,70.2,18.7,29.29,NNE,22,13.8,13.8,14,0.00,CLR,,0.00,WeatherDisplay:10.37,2013-05-25 21:59:00,
2013-05-25 18:01:00,70.2,18.7,29.29,NNE,22,8.1,8.7,14,0.00,CLR,,0.00,WeatherDisplay:10.37,2013-05-25 22:01:00,
2013-05-25 18:03:00,71.1,19.4,29.26,NNE,22,7.6,7.6,14,0.00,CLR,,0.00,WeatherDisplay:10.37,2013-05-25 22:03:00,
2013-05-25 18:04:00,71.1,19.4,29.26,NNE,22,10.7,10.7,14,0.00,CLR,,0.00,WeatherDisplay:10.37,2013-05-25 22:04:00,
2013-05-25 18:06:00,71.1,19.4,29.26,NNE,22,13.2,13.2,14,0.00,CLR,,0.00,WeatherDisplay:10.37,2013-05-25 22:06:00,
2013-05-25 18:08:00,71.1,19.4,29.26,NNE,22,13.8,13.8,14,0.00,CLR,,0.00,WeatherDisplay:10.37,2013-05-25 22:08:00,
2013-05-25 18:09:00,70.7,19.1,29.26,NNE,22,12.1,12.1,14,0.00,CLR,,0.00,WeatherDisplay:10.37,2013-05-25 22:09:00,
2013-05-25 18:10:00,70.7,19.1,29.26,NNE,22,11.5,11.5,14,0.00,CLR,,0.00,WeatherDisplay:10.37,2013-05-25 22:10:00,
2013-05-25 18:11:00,70.5,19.0,29.26,NW,315,11.5,11.5,14,0.00,CLR,,0.00,WeatherDisplay:10.37,2013-05-25 22:11:00,
2013-05-25 18:13:00,70.3,18.8,29.26,NNE,22,8.1,8.1,14,0.00,CLR,,0.00,WeatherDisplay:10.37,2013-05-25 22:13:00,
2013-05-25 18:14:00,70.0,18.5,29.26,NNE,22,11.5,11.5,14,0.00,CLR,,0.00,WeatherDisplay:10.37,2013-05-25 22:14:00,
2013-05-25 18:15:00,70.0,18.5,29.26,NNE,22,10.4,10.4,14,0.00,CLR,,0.00,WeatherDisplay:10.37,2013-05-25 22:15:00,
2013-05-25 18:17:00,69.8,18.4,29.26,NNE,22,11.5,11.5,14,0.00,CLR,,0.00,WeatherDisplay:10.37,2013-05-25 22:17:00,
2013-05-25 18:19:00,69.6,19.9,29.29,NNE,22,10.4,10.4,15,0.00,CLR,,0.00,WeatherDisplay:10.37,2013-05-25 22:19:00,
2013-05-25 18:20:00,69.8,18.4,29.29,NNE,22,11.5,11.5,14,0.00,CLR,,0.00,WeatherDisplay:10.37,2013-05-25 22:20:00,
2013-05-25 18:22:00,69.3,19.6,29.29,NNE,22,9.2,9.2,15,0.00,CLR,,0.00,WeatherDisplay:10.37,2013-05-25 22:22:00,
2013-05-25 18:24:00,69.8,18.4,29.29,NNE,22,6.9,6.9,14,0.00,CLR,,0.00,WeatherDisplay:10.37,2013-05-25 22:24:00,
2013-05-25 18:25:00,70.0,18.5,29.29,NNE,22,9.8,9.8,14,0.00,CLR,,0.00,WeatherDisplay:10.37,2013-05-25 22:25:00,
2013-05-25 18:27:00,69.6,19.9,29.29,NNE,22,11.5,11.5,15,0.00,CLR,,0.00,WeatherDisplay:10.37,2013-05-25 22:27:00,
2013-05-25 18:29:00,69.6,19.9,29.29,NNW,338,12.7,12.7,15,0.00,CLR,,0.00,WeatherDisplay:10.37,2013-05-25 22:29:00,
2013-05-25 18:30:00,69.8,18.4,29.29,NNE,22,9.2,9.2,14,0.00,CLR,,0.00,WeatherDisplay:10.37,2013-05-25 22:30:00,
2013-05-25 18:31:00,70.0,18.5,29.29,NNE,22,8.1,8.1,14,0.00,CLR,,0.00,WeatherDisplay:10.37,2013-05-25 22:31:00,
2013-05-25 18:32:00,70.2,18.7,29.26,NNE,22,10.4,10.4,14,0.00,CLR,,0.00,WeatherDisplay:10.37,2013-05-25 22:32:00,
2013-05-25 18:34:00,70.7,19.1,29.26,NNE,22,8.1,8.1,14,0.00,CLR,,0.00,WeatherDisplay:10.37,2013-05-25 22:34:00,
2013-05-25 18:35:00,71.1,19.4,29.26,NNE,22,10.4,10.4,14,0.00,CLR,,0.00,WeatherDisplay:10.37,2013-05-25 22:35:00,
2013-05-25 18:36:00,71.2,19.5,29.26,NNE,22,12.7,12.7,14,0.00,CLR,,0.00,WeatherDisplay:10.37,2013-05-25 22:36:00,
2013-05-25 18:38:00,71.4,19.7,29.26,NNW,338,11.5,11.5,14,0.00,CLR,,0.00,WeatherDisplay:10.37,2013-05-25 22:38:00,
2013-05-25 18:39:00,71.4,19.7,29.26,NNE,22,12.7,12.7,14,0.00,CLR,,0.00,WeatherDisplay:10.37,2013-05-25 22:39:00,
2013-05-25 18:40:00,71.6,19.8,29.26,NNE,22,10.4,10.4,14,0.00,CLR,,0.00,WeatherDisplay:10.37,2013-05-25 22:40:00,
2013-05-25 18:41:00,71.4,19.7,29.26,NNE,22,13.8,13.8,14,0.00,CLR,,0.00,WeatherDisplay:10.37,2013-05-25 22:41:00,
2013-05-25 18:43:00,71.4,19.7,29.26,NNE,22,6.9,6.9,14,0.00,CLR,,0.00,WeatherDisplay:10.37,2013-05-25 22:43:00,
2013-05-25 18:44:00,71.2,19.5,29.26,NNE,22,9.2,9.2,14,0.00,CLR,,0.00,WeatherDisplay:10.37,2013-05-25 22:44:00,
2013-05-25 18:45:00,71.4,19.7,29.26,NNE,22,9.2,9.2,14,0.00,CLR,,0.00,WeatherDisplay:10.37,2013-05-25 22:45:00,
2013-05-25 18:46:00,72.0,20.1,29.26,NNE,22,5.8,5.8,14,0.00,CLR,,0.00,WeatherDisplay:10.37,2013-05-25 22:46:00,
2013-05-25 18:47:00,72.3,20.4,29.26,NE,45,8.1,8.1,14,0.00,CLR,,0.00,WeatherDisplay:10.37,2013-05-25 22:47:00,
2013-05-25 18:48:00,72.0,20.1,29.26,NNE,22,12.7,12.7,14,0.00,CLR,,0.00,WeatherDisplay:10.37,2013-05-25 22:48:00,
2013-05-25 18:50:00,72.0,20.1,29.26,NNE,22,12.7,12.7,14,0.00,CLR,,0.00,WeatherDisplay:10.37,2013-05-25 22:50:00,
2013-05-25 18:51:00,71.2,19.5,29.26,NE,45,9.2,9.2,14,0.00,CLR,,0.00,WeatherDisplay:10.37,2013-05-25 22:51:00,
2013-05-25 18:52:00,71.2,19.5,29.26,NE,45,8.1,8.1,14,0.00,CLR,,0.00,WeatherDisplay:10.37,2013-05-25 22:52:00,
2013-05-25 18:53:00,71.2,19.5,29.26,WNW,292,8.1,8.1,14,0.00,CLR,,0.00,WeatherDisplay:10.37,2013-05-25 22:53:00,
2013-05-25 18:54:00,71.2,19.5,29.26,NNE,17,2.0,9.0,14,0.00,CLR,,0.00,WeatherDisplay:10.37,2013-05-25 22:54:00,
2013-05-25 18:55:00,71.6,19.8,29.26,WNW,292,3.5,3.5,14,0.00,CLR,,0.00,WeatherDisplay:10.37,2013-05-25 22:55:00,
2013-05-25 18:56:00,71.4,19.7,29.26,NNE,22,5.6,5.6,14,0.00,CLR,,0.00,WeatherDisplay:10.37,2013-05-25 22:56:00,
2013-05-25 18:57:00,71.4,19.7,29.26,NNE,22,8.1,8.1,14,0.00,CLR,,0.00,WeatherDisplay:10.37,2013-05-25 22:57:00,
2013-05-25 18:58:00,70.9,19.3,29.26,NNE,22,8.1,8.1,14,0.00,CLR,,0.00,WeatherDisplay:10.37,2013-05-25 22:58:00,
2013-05-25 18:59:00,70.7,19.1,29.26,NNE,22,5.8,5.8,14,0.00,CLR,,0.00,WeatherDisplay:10.37,2013-05-25 22:59:00,
2013-05-25 19:00:00,70.9,19.3,29.26,NNE,22,3.8,3.8,14,0.00,CLR,,0.00,WeatherDisplay:10.37,2013-05-25 23:00:00,
2013-05-25 19:01:00,71.1,19.4,29.26,NNE,22,5.8,5.8,14,0.00,CLR,,0.00,WeatherDisplay:10.37,2013-05-25 23:01:00,
2013-05-25 19:02:00,71.4,19.7,29.26,NNE,22,5.9,5.9,14,0.00,CLR,,0.00,WeatherDisplay:10.37,2013-05-25 23:02:00,
2013-05-25 19:03:00,71.4,19.7,29.26,NNE,22,10.5,10.5,14,0.00,CLR,,0.00,WeatherDisplay:10.37,2013-05-25 23:03:00,
2013-05-25 19:05:00,71.4,19.7,29.26,NE,45,10.4,10.4,14,0.00,CLR,,0.00,WeatherDisplay:10.37,2013-05-25 23:05:00,
2013-05-25 19:07:00,71.6,19.8,29.26,NNE,22,6.0,6.0,14,0.00,CLR,,0.00,WeatherDisplay:10.37,2013-05-25 23:07:00,
2013-05-25 19:08:00,71.8,20.0,29.26,NNE,22,8.7,8.7,14,0.00,CLR,,0.00,WeatherDisplay:10.37,2013-05-25 23:08:00,
2013-05-25 19:10:00,71.2,19.5,29.26,NNE,22,8.1,8.1,14,0.00,CLR,,0.00,WeatherDisplay:10.37,2013-05-25 23:10:00,
2013-05-25 19:11:00,71.2,19.5,29.26,North,0,4.6,5.6,14,0.00,CLR,,0.00,WeatherDisplay:10.37,2013-05-25 23:11:00,
2013-05-25 19:12:00,71.6,19.8,29.26,NNW,338,7.1,7.1,14,0.00,CLR,,0.00,WeatherDisplay:10.37,2013-05-25 23:12:00,
2013-05-25 19:13:00,71.4,19.7,29.26,NNE,22,6.9,6.9,14,0.00,CLR,,0.00,WeatherDisplay:10.37,2013-05-25 23:13:00,
2013-05-25 19:14:00,71.2,19.5,29.26,NNE,22,5.8,5.8,14,0.00,CLR,,0.00,WeatherDisplay:10.37,2013-05-25 23:14:00,
2013-05-25 19:15:00,71.2,19.5,29.26,NNE,22,8.1,8.1,14,0.00,CLR,,0.00,WeatherDisplay:10.37,2013-05-25 23:15:00,
2013-05-25 19:16:00,71.2,19.5,29.26,NNE,22,9.2,9.2,14,0.00,CLR,,0.00,WeatherDisplay:10.37,2013-05-25 23:16:00,
2013-05-25 19:17:00,69.8,18.4,29.26,NNE,22,6.9,6.9,14,0.00,CLR,,0.00,WeatherDisplay:10.37,2013-05-25 23:17:00,
2013-05-25 19:18:00,69.6,19.9,29.26,NNE,22,5.8,5.8,15,0.00,CLR,,0.00,WeatherDisplay:10.37,2013-05-25 23:18:00,
2013-05-25 19:20:00,69.4,19.7,29.26,NE,45,8.1,8.1,15,0.00,CLR,,0.00,WeatherDisplay:10.37,2013-05-25 23:20:00,
2013-05-25 19:21:00,69.4,19.7,29.26,NNE,22,5.8,5.8,15,0.00,CLR,,0.00,WeatherDisplay:10.37,2013-05-25 23:21:00,
2013-05-25 19:22:00,69.6,19.9,29.26,NNE,22,5.8,5.8,15,0.00,CLR,,0.00,WeatherDisplay:10.37,2013-05-25 23:22:00,
2013-05-25 19:23:00,70.2,18.7,29.26,NNE,22,5.9,5.9,14,0.00,CLR,,0.00,WeatherDisplay:10.37,2013-05-25 23:23:00,
2013-05-25 19:25:00,70.2,18.7,29.26,SSW,202,10.4,10.4,14,0.00,CLR,,0.00,WeatherDisplay:10.37,2013-05-25 23:25:00,
2013-05-25 19:26:00,69.4,19.7,29.26,NNE,22,7.1,7.1,15,0.00,CLR,,0.00,WeatherDisplay:10.37,2013-05-25 23:26:00,
2013-05-25 19:27:00,68.7,19.1,29.26,NE,45,6.9,6.9,15,0.00,CLR,,0.00,WeatherDisplay:10.37,2013-05-25 23:27:00,
2013-05-25 19:28:00,68.7,19.1,29.26,NNE,22,6.9,6.9,15,0.00,CLR,,0.00,WeatherDisplay:10.37,2013-05-25 23:28:00,
2013-05-25 19:30:00,68.4,18.9,29.26,NNE,22,3.5,3.5,15,0.00,CLR,,0.00,WeatherDisplay:10.37,2013-05-25 23:30:00,
2013-05-25 19:31:00,68.5,19.0,29.26,NNE,22,3.5,3.5,15,0.00,CLR,,0.00,WeatherDisplay:10.37,2013-05-25 23:31:00,
2013-05-25 19:32:00,68.5,19.0,29.26,NNE,22,4.6,4.6,15,0.00,CLR,,0.00,WeatherDisplay:10.37,2013-05-25 23:32:00,
2013-05-25 19:34:00,68.7,19.1,29.26,NNE,22,5.8,5.8,15,0.00,CLR,,0.00,WeatherDisplay:10.37,2013-05-25 23:34:00,
2013-05-25 19:35:00,68.4,18.9,29.26,NE,45,8.1,8.1,15,0.00,CLR,,0.00,WeatherDisplay:10.37,2013-05-25 23:35:00,
2013-05-25 19:36:00,68.0,18.6,29.26,NNE,22,8.1,8.1,15,0.00,CLR,,0.00,WeatherDisplay:10.37,2013-05-25 23:36:00,
2013-05-25 19:37:00,68.0,18.6,29.26,NNE,22,6.9,6.9,15,0.00,CLR,,0.00,WeatherDisplay:10.37,2013-05-25 23:37:00,
2013-05-25 19:39:00,66.9,17.7,29.26,NNE,22,11.5,11.5,15,0.00,CLR,,0.00,WeatherDisplay:10.37,2013-05-25 23:39:00,
2013-05-25 19:40:00,67.1,17.8,29.26,NNE,22,8.1,8.1,15,0.00,CLR,,0.00,WeatherDisplay:10.37,2013-05-25 23:40:00,
2013-05-25 19:41:00,67.3,18.0,29.26,NNE,22,8.1,8.1,15,0.00,CLR,,0.00,WeatherDisplay:10.37,2013-05-25 23:41:00,
2013-05-25 19:42:00,67.3,18.0,29.26,NNE,22,6.0,6.0,15,0.00,CLR,,0.00,WeatherDisplay:10.37,2013-05-25 23:42:00,
2013-05-25 19:43:00,67.3,18.0,29.26,NE,45,8.1,8.1,15,0.00,CLR,,0.00,WeatherDisplay:10.37,2013-05-25 23:43:00,
2013-05-25 19:44:00,66.7,17.6,29.26,North,0,5.8,5.8,15,0.00,CLR,,0.00,WeatherDisplay:10.37,2013-05-25 23:44:00,
2013-05-25 19:45:00,66.9,17.7,29.26,NNE,22,6.2,6.2,15,0.00,CLR,,0.00,WeatherDisplay:10.37,2013-05-25 23:45:00,
2013-05-25 19:46:00,66.9,17.7,29.26,NNE,22,7.4,7.4,15,0.00,CLR,,0.00,WeatherDisplay:10.37,2013-05-25 23:46:00,
2013-05-25 19:47:00,66.6,17.4,29.26,NNW,338,6.9,6.9,15,0.00,CLR,,0.00,WeatherDisplay:10.37,2013-05-25 23:47:00,
2013-05-25 19:48:00,66.4,17.3,29.26,NNE,22,5.8,5.8,15,0.00,CLR,,0.00,WeatherDisplay:10.37,2013-05-25 23:48:00,
2013-05-25 19:49:00,66.6,17.4,29.26,NNE,22,8.1,8.1,15,0.00,CLR,,0.00,WeatherDisplay:10.37,2013-05-25 23:49:00,
2013-05-25 19:50:00,66.6,17.4,29.26,NNE,22,9.2,9.2,15,0.00,CLR,,0.00,WeatherDisplay:10.37,2013-05-25 23:50:00,
2013-05-25 19:51:00,66.6,17.4,29.26,NNE,22,9.2,9.2,15,0.00,CLR,,0.00,WeatherDisplay:10.37,2013-05-25 23:51:00,
2013-05-25 19:53:00,66.2,17.1,29.26,NNE,22,5.4,5.4,15,0.00,CLR,,0.00,WeatherDisplay:10.37,2013-05-25 23:53:00,
2013-05-25 19:54:00,66.2,17.1,29.26,NNE,22,6.2,6.2,15,0.00,CLR,,0.00,WeatherDisplay:10.37,2013-05-25 23:54:00,
2013-05-25 19:55:00,65.5,16.5,29.26,NNE,22,5.8,5.8,15,0.00,CLR,,0.00,WeatherDisplay:10.37,2013-05-25 23:55:00,
2013-05-25 19:56:00,65.5,16.5,29.26,NNE,22,5.8,5.8,15,0.00,CLR,,0.00,WeatherDisplay:10.37,2013-05-25 23:56:00,
2013-05-25 19:58:00,65.5,16.5,29.26,NNE,22,5.8,5.8,15,0.00,CLR,,0.00,WeatherDisplay:10.37,2013-05-25 23:58:00,
2013-05-25 19:59:00,65.3,16.4,29.26,NNE,22,5.8,5.8,15,0.00,CLR,,0.00,WeatherDisplay:10.37,2013-05-25 23:59:00,
2013-05-25 20:01:00,65.5,16.5,29.26,NE,45,10.4,10.4,15,0.00,CLR,,0.00,WeatherDisplay:10.37,2013-05-26 00:01:00,
2013-05-25 20:02:00,65.1,16.3,29.29,NNE,22,10.4,10.4,15,0.00,CLR,,0.00,WeatherDisplay:10.37,2013-05-26 00:02:00,
2013-05-25 20:03:00,64.9,16.1,29.29,NNE,22,5.8,5.8,15,0.00,CLR,,0.00,WeatherDisplay:10.37,2013-05-26 00:03:00,
2013-05-25 20:05:00,65.5,16.5,29.29,NNE,22,5.9,5.9,15,0.00,CLR,,0.00,WeatherDisplay:10.37,2013-05-26 00:05:00,
2013-05-25 20:06:00,65.5,16.5,29.29,NNE,22,5.8,6.0,15,0.00,CLR,,0.00,WeatherDisplay:10.37,2013-05-26 00:06:00,
2013-05-25 20:07:00,64.9,16.1,29.29,NE,45,5.8,5.8,15,0.00,CLR,,0.00,WeatherDisplay:10.37,2013-05-26 00:07:00,
2013-05-25 20:08:00,64.9,16.1,29.29,NNE,22,5.8,5.8,15,0.00,CLR,,0.00,WeatherDisplay:10.37,2013-05-26 00:08:00,
2013-05-25 20:11:00,64.2,17.0,29.29,NNE,22,4.6,4.6,16,0.00,CLR,,0.00,WeatherDisplay:10.37,2013-05-26 00:11:00,
2013-05-25 20:12:00,63.9,16.7,29.29,NE,45,4.6,4.6,16,0.00,CLR,,0.00,WeatherDisplay:10.37,2013-05-26 00:12:00,
2013-05-25 20:13:00,63.5,16.4,29.29,NNE,22,2.3,0.0,16,0.00,CLR,,0.00,WeatherDisplay:10.37,2013-05-26 00:13:00,
2013-05-25 20:16:00,62.6,15.7,29.29,NNE,22,0.0,0.0,16,0.00,CLR,,0.00,WeatherDisplay:10.37,2013-05-26 00:16:00,
2013-05-25 20:17:00,62.4,15.6,29.26,SSE,158,0.0,0.0,16,0.00,CLR,,0.00,WeatherDisplay:10.37,2013-05-26 00:17:00,
2013-05-25 20:18:00,62.1,15.3,29.26,WNW,292,0.0,0.0,16,0.00,CLR,,0.00,WeatherDisplay:10.37,2013-05-26 00:18:00,
2013-05-25 20:19:00,62.1,15.3,29.26,NNE,22,0.0,0.0,16,0.00,CLR,,0.00,WeatherDisplay:10.37,2013-05-26 00:19:00,
2013-05-25 20:21:00,62.2,15.4,29.26,NNE,22,0.0,0.0,16,0.00,CLR,,0.00,WeatherDisplay:10.37,2013-05-26 00:21:00,
2013-05-25 20:22:00,62.2,15.4,29.26,NNE,22,0.0,0.0,16,0.00,CLR,,0.00,WeatherDisplay:10.37,2013-05-26 00:22:00,
2013-05-25 20:23:00,61.9,15.1,29.26,NNE,22,0.0,0.0,16,0.00,CLR,,0.00,WeatherDisplay:10.37,2013-05-26 00:23:00,
2013-05-25 20:24:00,61.9,15.1,29.26,NE,45,0.0,0.0,16,0.00,CLR,,0.00,WeatherDisplay:10.37,2013-05-26 00:24:00,
2013-05-25 20:26:00,61.3,14.7,29.26,NE,45,0.0,0.0,16,0.00,CLR,,0.00,WeatherDisplay:10.37,2013-05-26 00:26:00,
2013-05-25 20:27:00,61.0,14.4,29.26,NE,45,0.0,0.0,16,0.00,CLR,,0.00,WeatherDisplay:10.37,2013-05-26 00:27:00,
2013-05-25 20:28:00,61.0,14.4,29.26,SSE,158,0.0,0.0,16,0.00,CLR,,0.00,WeatherDisplay:10.37,2013-05-26 00:28:00,
2013-05-25 20:29:00,61.0,14.4,29.26,SSE,158,0.0,0.0,16,0.00,CLR,,0.00,WeatherDisplay:10.37,2013-05-26 00:29:00,
2013-05-25 20:31:00,60.4,15.4,29.26,SSE,158,0.0,0.0,17,0.00,CLR,,0.00,WeatherDisplay:10.37,2013-05-26 00:31:00,
2013-05-25 20:32:00,60.4,15.4,29.26,ESE,112,0.0,0.0,17,0.00,CLR,,0.00,WeatherDisplay:10.37,2013-05-26 00:32:00,
2013-05-25 20:33:00,60.4,15.4,29.26,NNE,22,0.0,0.0,17,0.00,CLR,,0.00,WeatherDisplay:10.37,2013-05-26 00:33:00,
2013-05-25 20:34:00,60.3,15.2,29.26,NNE,22,0.0,0.0,17,0.00,CLR,,0.00,WeatherDisplay:10.37,2013-05-26 00:34:00,
2013-05-25 20:36:00,60.1,15.1,29.26,NNW,338,0.0,0.0,17,0.00,CLR,,0.00,WeatherDisplay:10.37,2013-05-26 00:36:00,
2013-05-25 20:37:00,59.9,14.9,29.26,NNE,22,0.0,0.0,17,0.00,CLR,,0.00,WeatherDisplay:10.37,2013-05-26 00:37:00,
2013-05-25 20:39:00,59.7,14.8,29.26,SSW,202,0.0,0.0,17,0.00,CLR,,0.00,WeatherDisplay:10.37,2013-05-26 00:39:00,
2013-05-25 20:40:00,59.5,14.6,29.26,SSE,158,0.0,0.0,17,0.00,CLR,,0.00,WeatherDisplay:10.37,2013-05-26 00:40:00,
2013-05-25 20:42:00,59.4,14.5,29.26,NNE,22,0.0,0.0,17,0.00,CLR,,0.00,WeatherDisplay:10.37,2013-05-26 00:42:00,
2013-05-25 20:44:00,59.2,14.3,29.26,West,270,0.0,0.0,17,0.00,CLR,,0.00,WeatherDisplay:10.37,2013-05-26 00:44:00,
2013-05-25 20:45:00,59.2,14.3,29.26,NW,315,0.0,0.0,17,0.00,CLR,,0.00,WeatherDisplay:10.37,2013-05-26 00:45:00,
2013-05-25 20:47:00,58.8,14.0,29.26,ESE,112,0.0,0.0,17,0.00,CLR,,0.00,WeatherDisplay:10.37,2013-05-26 00:47:00,
2013-05-25 20:49:00,58.6,13.9,29.26,NNE,22,0.0,0.0,17,0.00,CLR,,0.00,WeatherDisplay:10.37,2013-05-26 00:49:00,
2013-05-25 20:50:00,58.6,13.9,29.26,NNE,22,0.0,0.0,17,0.00,CLR,,0.00,WeatherDisplay:10.37,2013-05-26 00:50:00,
2013-05-25 20:52:00,58.1,13.4,29.26,ENE,68,0.0,0.0,17,0.00,CLR,,0.00,WeatherDisplay:10.37,2013-05-26 00:52:00,
2013-05-25 20:53:00,58.1,13.4,29.26,NNE,22,0.0,0.0,17,0.00,CLR,,0.00,WeatherDisplay:10.37,2013-05-26 00:53:00,
2013-05-25 20:54:00,57.9,13.3,29.26,ENE,64,0.0,0.0,17,0.00,CLR,,0.00,WeatherDisplay:10.37,2013-05-26 00:54:00,
2013-05-25 20:55:00,57.9,13.3,29.26,ENE,68,0.0,0.0,17,0.00,CLR,,0.00,WeatherDisplay:10.37,2013-05-26 00:55:00,
2013-05-25 20:56:00,57.7,13.2,29.26,ENE,68,0.0,0.0,17,0.00,CLR,,0.00,WeatherDisplay:10.37,2013-05-26 00:56:00,
2013-05-25 20:58:00,57.6,13.0,29.26,NNE,22,0.0,0.0,17,0.00,CLR,,0.00,WeatherDisplay:10.37,2013-05-26 00:58:00,
2013-05-25 21:00:00,57.2,12.7,29.26,SSW,202,0.0,0.0,17,0.00,CLR,,0.00,WeatherDisplay:10.37,2013-05-26 01:00:00,
2013-05-25 21:01:00,57.2,12.7,29.26,NNE,22,3.5,3.5,17,0.00,CLR,,0.00,WeatherDisplay:10.37,2013-05-26 01:01:00,
2013-05-25 21:03:00,56.8,12.4,29.26,NNE,22,2.3,0.0,17,0.00,CLR,,0.00,WeatherDisplay:10.37,2013-05-26 01:03:00,
2013-05-25 21:05:00,56.5,12.1,29.26,NNW,338,5.8,5.8,17,0.00,CLR,,0.00,WeatherDisplay:10.37,2013-05-26 01:05:00,
2013-05-25 21:06:00,56.5,12.1,29.26,NE,45,2.3,0.0,17,0.00,CLR,,0.00,WeatherDisplay:10.37,2013-05-26 01:06:00,
2013-05-25 21:08:00,56.5,12.1,29.26,NNE,22,0.0,0.0,17,0.00,CLR,,0.00,WeatherDisplay:10.37,2013-05-26 01:08:00,
2013-05-25 21:09:00,56.3,12.0,29.26,WSW,248,0.0,0.0,17,0.00,CLR,,0.00,WeatherDisplay:10.37,2013-05-26 01:09:00,
2013-05-25 21:10:00,56.1,11.8,29.26,ENE,68,0.0,0.0,17,0.00,CLR,,0.00,WeatherDisplay:10.37,2013-05-26 01:10:00,
2013-05-25 21:11:00,55.9,11.7,29.26,ENE,68,0.0,0.0,17,0.00,CLR,,0.00,WeatherDisplay:10.37,2013-05-26 01:11:00,
2013-05-25 21:13:00,55.4,11.2,29.26,SSE,158,2.3,2.3,17,0.00,CLR,,0.00,WeatherDisplay:10.37,2013-05-26 01:13:00,
2013-05-25 21:14:00,55.0,12.2,29.26,SSE,158,2.3,0.0,18,0.00,CLR,,0.00,WeatherDisplay:10.37,2013-05-26 01:14:00,
2013-05-25 21:15:00,54.9,12.1,29.26,SSE,158,1.2,1.2,18,0.00,CLR,,0.00,WeatherDisplay:10.37,2013-05-26 01:15:00,
2013-05-25 21:16:00,54.5,11.8,29.26,SSE,158,1.2,0.0,18,0.00,CLR,,0.00,WeatherDisplay:10.37,2013-05-26 01:16:00,
2013-05-25 21:19:00,54.5,11.8,29.29,SSE,158,1.2,0.0,18,0.00,CLR,,0.00,WeatherDisplay:10.37,2013-05-26 01:19:00,
2013-05-25 21:21:00,54.1,11.5,29.29,SSW,202,0.0,0.0,18,0.00,CLR,,0.00,WeatherDisplay:10.37,2013-05-26 01:21:00,
2013-05-25 21:22:00,54.1,11.5,29.29,WSW,248,0.0,0.0,18,0.00,CLR,,0.00,WeatherDisplay:10.37,2013-05-26 01:22:00,
2013-05-25 21:24:00,53.6,11.0,29.29,WSW,248,2.3,0.0,18,0.00,CLR,,0.00,WeatherDisplay:10.37,2013-05-26 01:24:00,
2013-05-25 21:26:00,53.4,10.9,29.29,SSE,158,0.0,0.0,18,0.00,CLR,,0.00,WeatherDisplay:10.37,2013-05-26 01:26:00,
2013-05-25 21:27:00,53.4,10.9,29.29,SSE,158,0.0,0.0,18,0.00,CLR,,0.00,WeatherDisplay:10.37,2013-05-26 01:27:00,
2013-05-25 21:29:00,53.4,14.4,29.29,South,179,0.0,0.0,21,0.00,CLR,,0.00,WeatherDisplay:10.37,2013-05-26 01:29:00,
2013-05-25 21:30:00,53.4,14.4,29.29,WNW,292,0.0,0.0,21,0.00,CLR,,0.00,WeatherDisplay:10.37,2013-05-26 01:30:00,
2013-05-25 21:31:00,53.2,14.2,29.29,North,0,0.0,0.0,21,0.00,CLR,,0.00,WeatherDisplay:10.37,2013-05-26 01:31:00,
2013-05-25 21:32:00,53.1,14.1,29.26,SSE,158,1.2,0.0,21,0.00,CLR,,0.00,WeatherDisplay:10.37,2013-05-26 01:32:00,
2013-05-25 21:35:00,53.1,14.1,29.26,SSW,202,0.0,0.0,21,0.00,CLR,,0.00,WeatherDisplay:10.37,2013-05-26 01:35:00,
2013-05-25 21:36:00,52.7,13.8,29.26,SSW,202,0.0,0.0,21,0.00,CLR,,0.00,WeatherDisplay:10.37,2013-05-26 01:36:00,
2013-05-25 21:37:00,52.7,13.8,29.26,SSE,158,0.0,0.0,21,0.00,CLR,,0.00,WeatherDisplay:10.37,2013-05-26 01:37:00,
2013-05-25 21:38:00,52.3,13.5,29.26,SSE,158,0.0,0.0,21,0.00,CLR,,0.00,WeatherDisplay:10.37,2013-05-26 01:38:00,
2013-05-25 21:40:00,52.2,13.3,29.26,NNE,22,0.0,0.0,21,0.00,CLR,,0.00,WeatherDisplay:10.37,2013-05-26 01:40:00,
2013-05-25 21:42:00,52.0,13.2,29.26,South,180,0.0,0.0,21,0.00,CLR,,0.00,WeatherDisplay:10.37,2013-05-26 01:42:00,
2013-05-25 21:43:00,52.0,13.2,29.26,NNE,22,0.0,0.0,21,0.00,CLR,,0.00,WeatherDisplay:10.37,2013-05-26 01:43:00,
2013-05-25 21:45:00,52.0,13.2,29.26,SW,225,0.0,0.0,21,0.00,CLR,,0.00,WeatherDisplay:10.37,2013-05-26 01:45:00,
2013-05-25 21:47:00,52.0,13.2,29.29,SSE,158,1.2,0.0,21,0.00,CLR,,0.00,WeatherDisplay:10.37,2013-05-26 01:47:00,
2013-05-25 21:48:00,52.0,13.2,29.29,SSE,158,0.0,0.0,21,0.00,CLR,,0.00,WeatherDisplay:10.37,2013-05-26 01:48:00,
2013-05-25 21:50:00,51.6,12.9,29.29,SSW,202,0.0,0.0,21,0.00,CLR,,0.00,WeatherDisplay:10.37,2013-05-26 01:50:00,
2013-05-25 21:52:00,51.4,12.7,29.29,SSE,158,0.0,0.0,21,0.00,CLR,,0.00,WeatherDisplay:10.37,2013-05-26 01:52:00,
2013-05-25 21:53:00,51.3,12.6,29.29,SSW,202,1.2,1.2,21,0.00,CLR,,0.00,WeatherDisplay:10.37,2013-05-26 01:53:00,
2013-05-25 21:55:00,51.3,12.6,29.29,ENE,68,0.0,0.0,21,0.00,CLR,,0.00,WeatherDisplay:10.37,2013-05-26 01:55:00,
2013-05-25 21:56:00,51.3,12.6,29.29,NNE,22,0.0,0.0,21,0.00,CLR,,0.00,WeatherDisplay:10.37,2013-05-26 01:56:00,
2013-05-25 21:57:00,50.9,12.3,29.29,SSW,202,0.0,0.0,21,0.00,CLR,,0.00,WeatherDisplay:10.37,2013-05-26 01:57:00,
2013-05-25 21:58:00,50.9,12.3,29.29,SSW,202,0.0,0.0,21,0.00,CLR,,0.00,WeatherDisplay:10.37,2013-05-26 01:58:00,
2013-05-25 22:00:00,50.9,12.3,29.29,SSE,158,0.0,0.0,21,0.00,CLR,,0.00,WeatherDisplay:10.37,2013-05-26 02:00:00,
2013-05-25 22:01:00,50.9,12.3,29.29,WSW,248,0.0,0.0,21,0.00,CLR,,0.00,WeatherDisplay:10.37,2013-05-26 02:01:00,
2013-05-25 22:02:00,50.7,12.1,29.29,SSE,158,0.0,0.0,21,0.00,CLR,,0.00,WeatherDisplay:10.37,2013-05-26 02:02:00,
2013-05-25 22:03:00,50.5,12.0,29.29,SSW,202,0.0,0.0,21,0.00,CLR,,0.00,WeatherDisplay:10.37,2013-05-26 02:03:00,
2013-05-25 22:05:00,50.5,12.0,29.29,NNE,22,0.0,0.0,21,0.00,CLR,,0.00,WeatherDisplay:10.37,2013-05-26 02:05:00,
2013-05-25 22:06:00,50.5,12.0,29.29,NNE,22,0.0,0.0,21,0.00,CLR,,0.00,WeatherDisplay:10.37,2013-05-26 02:06:00,
2013-05-25 22:07:00,50.4,11.8,29.29,NNE,22,0.0,0.0,21,0.00,CLR,,0.00,WeatherDisplay:10.37,2013-05-26 02:07:00,
2013-05-25 22:08:00,50.4,11.8,29.29,NNE,22,0.0,0.0,21,0.00,CLR,,0.00,WeatherDisplay:10.37,2013-05-26 02:08:00,
2013-05-25 22:10:00,50.2,11.7,29.29,NNE,22,0.0,0.0,21,0.00,CLR,,0.00,WeatherDisplay:10.37,2013-05-26 02:10:00,
2013-05-25 22:11:00,50.2,11.7,29.29,NNE,22,1.2,0.0,21,0.00,CLR,,0.00,WeatherDisplay:10.37,2013-05-26 02:11:00,
2013-05-25 22:12:00,50.0,11.5,29.29,NNE,22,0.0,0.0,21,0.00,CLR,,0.00,WeatherDisplay:10.37,2013-05-26 02:12:00,
2013-05-25 22:13:00,50.0,14.6,29.29,NNE,22,0.0,0.0,24,0.00,CLR,,0.00,WeatherDisplay:10.37,2013-05-26 02:13:00,
2013-05-25 22:14:00,50.0,14.6,29.29,NNE,22,0.0,0.0,24,0.00,CLR,,0.00,WeatherDisplay:10.37,2013-05-26 02:14:00,
2013-05-25 22:16:00,49.8,14.4,29.29,NNE,22,0.0,0.0,24,0.00,CLR,,0.00,WeatherDisplay:10.37,2013-05-26 02:16:00,
2013-05-25 22:18:00,49.8,14.4,29.29,NNE,22,0.0,0.0,24,0.00,CLR,,0.00,WeatherDisplay:10.37,2013-05-26 02:18:00,
2013-05-25 22:19:00,49.8,14.4,29.29,NNE,22,0.0,0.0,24,0.00,CLR,,0.00,WeatherDisplay:10.37,2013-05-26 02:19:00,
2013-05-25 22:21:00,49.6,14.3,29.29,NNE,22,0.0,0.0,24,0.00,CLR,,0.00,WeatherDisplay:10.37,2013-05-26 02:21:00,
2013-05-25 22:23:00,49.5,14.1,29.29,NNE,22,0.0,0.0,24,0.00,CLR,,0.00,WeatherDisplay:10.37,2013-05-26 02:23:00,
2013-05-25 22:25:00,49.5,14.1,29.29,NNE,22,0.0,0.0,24,0.00,CLR,,0.00,WeatherDisplay:10.37,2013-05-26 02:25:00,
2013-05-25 22:26:00,49.3,14.0,29.29,NNE,22,0.0,0.0,24,0.00,CLR,,0.00,WeatherDisplay:10.37,2013-05-26 02:26:00,
2013-05-25 22:28:00,49.1,13.8,29.29,NNE,22,0.0,0.0,24,0.00,CLR,,0.00,WeatherDisplay:10.37,2013-05-26 02:28:00,
2013-05-25 22:29:00,48.9,13.6,29.29,NNE,22,0.0,0.0,24,0.00,CLR,,0.00,WeatherDisplay:10.37,2013-05-26 02:29:00,
2013-05-25 22:30:00,48.9,13.6,29.29,NNE,22,0.0,0.0,24,0.00,CLR,,0.00,WeatherDisplay:10.37,2013-05-26 02:30:00,
2013-05-25 22:32:00,48.7,13.5,29.29,NNE,22,0.0,0.0,24,0.00,CLR,,0.00,WeatherDisplay:10.37,2013-05-26 02:32:00,
2013-05-25 22:33:00,48.7,13.5,29.29,NNE,22,0.0,0.0,24,0.00,CLR,,0.00,WeatherDisplay:10.37,2013-05-26 02:33:00,
2013-05-25 22:34:00,48.7,13.5,29.29,NNE,22,0.0,0.0,24,0.00,CLR,,0.00,WeatherDisplay:10.37,2013-05-26 02:34:00,
2013-05-25 22:35:00,48.7,13.5,29.29,NNE,22,0.0,0.0,24,0.00,CLR,,0.00,WeatherDisplay:10.37,2013-05-26 02:35:00,
2013-05-25 22:37:00,48.7,15.3,29.29,NNE,22,0.0,0.0,26,0.00,CLR,,0.00,WeatherDisplay:10.37,2013-05-26 02:37:00,
2013-05-25 22:38:00,48.6,15.2,29.29,NNE,22,0.0,0.0,26,0.00,CLR,,0.00,WeatherDisplay:10.37,2013-05-26 02:38:00,
2013-05-25 22:39:00,48.4,15.0,29.29,NNE,22,0.0,0.0,26,0.00,CLR,,0.00,WeatherDisplay:10.37,2013-05-26 02:39:00,
2013-05-25 22:40:00,48.4,15.0,29.29,NNE,22,0.0,0.0,26,0.00,CLR,,0.00,WeatherDisplay:10.37,2013-05-26 02:40:00,
2013-05-25 22:42:00,48.4,15.0,29.29,NNE,22,0.0,0.0,26,0.00,CLR,,0.00,WeatherDisplay:10.37,2013-05-26 02:42:00,
2013-05-25 22:43:00,48.4,15.0,29.29,NNE,22,0.0,0.0,26,0.00,CLR,,0.00,WeatherDisplay:10.37,2013-05-26 02:43:00,
2013-05-25 22:44:00,48.2,14.9,29.29,NNE,22,0.0,0.0,26,0.00,CLR,,0.00,WeatherDisplay:10.37,2013-05-26 02:44:00,
2013-05-25 22:45:00,48.2,14.9,29.29,NNE,22,0.0,0.0,26,0.00,CLR,,0.00,WeatherDisplay:10.37,2013-05-26 02:45:00,
2013-05-25 22:47:00,48.0,15.6,29.29,NNE,22,0.0,0.0,27,0.00,CLR,,0.00,WeatherDisplay:10.37,2013-05-26 02:47:00,
2013-05-25 22:48:00,48.0,15.6,29.29,NNE,22,0.0,0.0,27,0.00,CLR,,0.00,WeatherDisplay:10.37,2013-05-26 02:48:00,
2013-05-25 22:49:00,47.8,15.4,29.29,NNE,22,0.0,0.0,27,0.00,CLR,,0.00,WeatherDisplay:10.37,2013-05-26 02:49:00,
2013-05-25 22:50:00,47.8,15.4,29.29,NNE,22,0.0,0.0,27,0.00,CLR,,0.00,WeatherDisplay:10.37,2013-05-26 02:50:00,
2013-05-25 22:51:00,47.8,15.4,29.29,NNE,22,0.0,0.0,27,0.00,CLR,,0.00,WeatherDisplay:10.37,2013-05-26 02:51:00,
2013-05-25 22:52:00,47.7,15.3,29.29,NNE,22,0.0,0.0,27,0.00,CLR,,0.00,WeatherDisplay:10.37,2013-05-26 02:52:00,
2013-05-25 22:53:00,47.7,15.3,29.29,NNE,22,0.0,0.0,27,0.00,CLR,,0.00,WeatherDisplay:10.37,2013-05-26 02:53:00,
2013-05-25 22:54:00,47.7,15.3,29.29,NNE,22,0.0,0.0,27,0.00,CLR,,0.00,WeatherDisplay:10.37,2013-05-26 02:54:00,
2013-05-25 22:55:00,47.7,15.3,29.29,NNE,22,0.0,0.0,27,0.00,CLR,,0.00,WeatherDisplay:10.37,2013-05-26 02:55:00,
2013-05-25 22:56:00,47.7,15.3,29.29,NNE,22,0.0,0.0,27,0.00,CLR,,0.00,WeatherDisplay:10.37,2013-05-26 02:56:00,
2013-05-25 22:58:00,47.7,15.3,29.29,NNE,22,0.0,0.0,27,0.00,CLR,,0.00,WeatherDisplay:10.37,2013-05-26 02:58:00,
2013-05-25 22:59:00,47.3,15.0,29.29,ENE,68,0.0,0.0,27,0.00,CLR,,0.00,WeatherDisplay:10.37,2013-05-26 02:59:00,
2013-05-25 23:00:00,47.3,15.0,29.29,ENE,68,0.0,0.0,27,0.00,CLR,,0.00,WeatherDisplay:10.37,2013-05-26 03:00:00,
2013-05-25 23:01:00,47.3,15.0,29.29,ENE,68,0.0,0.0,27,0.00,CLR,,0.00,WeatherDisplay:10.37,2013-05-26 03:01:00,
2013-05-25 23:03:00,47.3,15.0,29.29,ENE,68,0.0,0.0,27,0.00,CLR,,0.00,WeatherDisplay:10.37,2013-05-26 03:03:00,
2013-05-25 23:04:00,47.1,14.8,29.29,ENE,68,0.0,0.0,27,0.00,CLR,,0.00,WeatherDisplay:10.37,2013-05-26 03:04:00,
2013-05-25 23:05:00,47.1,14.8,29.29,ENE,68,0.0,0.0,27,0.00,CLR,,0.00,WeatherDisplay:10.37,2013-05-26 03:05:00,
2013-05-25 23:06:00,46.9,15.5,29.29,ESE,112,0.0,0.0,28,0.00,CLR,,0.00,WeatherDisplay:10.37,2013-05-26 03:06:00,
2013-05-25 23:08:00,46.9,15.5,29.29,ENE,68,0.0,0.0,28,0.00,CLR,,0.00,WeatherDisplay:10.37,2013-05-26 03:08:00,
2013-05-25 23:10:00,46.9,15.5,29.29,ENE,68,0.0,0.0,28,0.00,CLR,,0.00,WeatherDisplay:10.37,2013-05-26 03:10:00,
2013-05-25 23:11:00,46.6,15.2,29.29,ENE,68,0.0,0.0,28,0.00,CLR,,0.00,WeatherDisplay:10.37,2013-05-26 03:11:00,
2013-05-25 23:13:00,46.4,15.0,29.29,ESE,112,0.0,0.0,28,0.00,CLR,,0.00,WeatherDisplay:10.37,2013-05-26 03:13:00,
2013-05-25 23:16:00,46.4,15.0,29.29,ESE,112,0.0,0.0,28,0.00,CLR,,0.00,WeatherDisplay:10.37,2013-05-26 03:16:00,
2013-05-25 23:18:00,46.4,15.0,29.29,ESE,112,0.0,0.0,28,0.00,CLR,,0.00,WeatherDisplay:10.37,2013-05-26 03:18:00,
2013-05-25 23:19:00,46.4,15.0,29.29,ESE,112,0.0,0.0,28,0.00,CLR,,0.00,WeatherDisplay:10.37,2013-05-26 03:19:00,
2013-05-25 23:21:00,46.4,15.0,29.29,NNE,22,0.0,0.0,28,0.00,CLR,,0.00,WeatherDisplay:10.37,2013-05-26 03:21:00,
2013-05-25 23:22:00,46.2,14.9,29.29,NNE,22,0.0,0.0,28,0.00,CLR,,0.00,WeatherDisplay:10.37,2013-05-26 03:22:00,
2013-05-25 23:23:00,46.2,14.9,29.29,NNE,22,0.0,0.0,28,0.00,CLR,,0.00,WeatherDisplay:10.37,2013-05-26 03:23:00,
2013-05-25 23:24:00,46.0,15.5,29.29,NNE,22,0.0,0.0,29,0.00,CLR,,0.00,WeatherDisplay:10.37,2013-05-26 03:24:00,
2013-05-25 23:26:00,46.0,15.5,29.29,NNE,22,0.0,0.0,29,0.00,CLR,,0.00,WeatherDisplay:10.37,2013-05-26 03:26:00,
2013-05-25 23:27:00,46.0,15.5,29.29,NNE,22,0.0,0.0,29,0.00,CLR,,0.00,WeatherDisplay:10.37,2013-05-26 03:27:00,
2013-05-25 23:28:00,46.0,15.5,29.29,NNE,22,0.0,0.0,29,0.00,CLR,,0.00,WeatherDisplay:10.37,2013-05-26 03:28:00,
2013-05-25 23:29:00,46.0,15.5,29.29,NNE,22,0.0,0.0,29,0.00,CLR,,0.00,WeatherDisplay:10.37,2013-05-26 03:29:00,
2013-05-25 23:31:00,45.9,15.3,29.29,NNE,22,0.0,0.0,29,0.00,CLR,,0.00,WeatherDisplay:10.37,2013-05-26 03:31:00,
2013-05-25 23:32:00,45.9,15.3,29.29,NNE,22,0.0,0.0,29,0.00,CLR,,0.00,WeatherDisplay:10.37,2013-05-26 03:32:00,
2013-05-25 23:34:00,45.7,15.2,29.29,NNE,22,0.0,0.0,29,0.00,CLR,,0.00,WeatherDisplay:10.37,2013-05-26 03:34:00,
2013-05-25 23:37:00,45.5,15.0,29.29,NNE,22,0.0,0.0,29,0.00,CLR,,0.00,WeatherDisplay:10.37,2013-05-26 03:37:00,
2013-05-25 23:38:00,45.3,14.9,29.29,NNE,22,0.0,0.0,29,0.00,CLR,,0.00,WeatherDisplay:10.37,2013-05-26 03:38:00,
2013-05-25 23:39:00,45.1,15.5,29.29,NNE,22,0.0,0.0,30,0.00,CLR,,0.00,WeatherDisplay:10.37,2013-05-26 03:39:00,
2013-05-25 23:42:00,45.1,15.5,29.29,NNE,22,0.0,0.0,30,0.00,CLR,,0.00,WeatherDisplay:10.37,2013-05-26 03:42:00,
2013-05-25 23:43:00,45.1,15.5,29.29,NNE,22,0.0,0.0,30,0.00,CLR,,0.00,WeatherDisplay:10.37,2013-05-26 03:43:00,
2013-05-25 23:44:00,45.1,15.5,29.29,NNE,22,0.0,0.0,30,0.00,CLR,,0.00,WeatherDisplay:10.37,2013-05-26 03:44:00,
2013-05-25 23:45:00,45.1,15.5,29.29,NNE,22,0.0,0.0,30,0.00,CLR,,0.00,WeatherDisplay:10.37,2013-05-26 03:45:00,
2013-05-25 23:47:00,45.0,15.3,29.29,NNE,22,0.0,0.0,30,0.00,CLR,,0.00,WeatherDisplay:10.37,2013-05-26 03:47:00,
2013-05-25 23:48:00,45.0,15.3,29.29,NNE,22,0.0,0.0,30,0.00,CLR,,0.00,WeatherDisplay:10.37,2013-05-26 03:48:00,
2013-05-25 23:49:00,44.8,15.2,29.29,NNE,22,1.2,0.0,30,0.00,CLR,,0.00,WeatherDisplay:10.37,2013-05-26 03:49:00,
2013-05-25 23:50:00,44.8,15.2,29.29,NNE,22,0.0,0.0,30,0.00,CLR,,0.00,WeatherDisplay:10.37,2013-05-26 03:50:00,
2013-05-25 23:52:00,44.8,15.9,29.29,NNE,22,1.2,1.2,31,0.00,CLR,,0.00,WeatherDisplay:10.37,2013-05-26 03:52:00,
2013-05-25 23:53:00,44.8,15.9,29.29,NNE,22,0.0,0.0,31,0.00,CLR,,0.00,WeatherDisplay:10.37,2013-05-26 03:53:00,
2013-05-25 23:54:00,44.6,15.8,29.29,NNE,22,0.0,0.0,31,0.00,CLR,,0.00,WeatherDisplay:10.37,2013-05-26 03:54:00,
2013-05-25 23:55:00,44.6,15.8,29.29,NNE,22,1.2,0.0,31,0.00,CLR,,0.00,WeatherDisplay:10.37,2013-05-26 03:55:00,
2013-05-25 23:58:00,44.6,16.5,29.29,NNE,22,0.0,0.0,32,0.00,CLR,,0.00,WeatherDisplay:10.37,2013-05-26 03:58:00,